createdAt,value
2023-02-12T00:00:15.768Z,55.01
2023-02-12T00:05:16.582Z,55.45
2023-02-12T00:10:15.430Z,54.54
2023-02-12T00:15:15.552Z,54.99
2023-02-12T00:20:14.565Z,54.60
2023-02-12T00:25:14.083Z,55.54
2023-02-12T00:30:13.752Z,55.81
2023-02-12T00:35:14.212Z,56.83
2023-02-12T00:40:13.798Z,57.91
2023-02-12T00:45:12.588Z,57.82
2023-02-12T00:50:13.543Z,58.38
2023-02-12T00:55:12.869Z,59.33
2023-02-12T01:00:13.066Z,58.19
2023-02-12T01:05:13.245Z,58.30
2023-02-12T01:10:12.998Z,58.34
2023-02-12T01:15:13.036Z,58.99
2023-02-12T01:20:17.453Z,59.96
2023-02-12T01:25:18.734Z,58.85
2023-02-12T01:30:22.240Z,59.27
2023-02-12T01:35:24.324Z,59.06
2023-02-12T01:40:23.016Z,59.83
2023-02-12T01:45:53.688Z,60.71
2023-02-12T01:50:56.074Z,62.32
2023-02-12T01:55:58.514Z,63.12
2023-02-12T02:00:57.759Z,62.62
2023-02-12T02:06:03.941Z,63.44
2023-02-12T02:11:23.993Z,62.68
2023-02-12T02:16:27.349Z,63.12
2023-02-12T02:21:48.789Z,62.83
2023-02-12T02:27:20.121Z,63.75
2023-02-12T02:32:25.651Z,63.97
2023-02-12T02:37:31.403Z,65.79
2023-02-12T02:42:36.225Z,65.16
2023-02-12T02:47:42.728Z,64.26
2023-02-12T02:52:46.449Z,63.83
2023-02-12T02:57:49.851Z,64.04
2023-02-12T03:02:53.924Z,64.26
2023-02-12T03:07:56.270Z,62.51
2023-02-12T03:12:58.869Z,62.77
2023-02-12T03:18:01.120Z,62.20
2023-02-12T03:23:05.675Z,62.37
2023-02-12T03:28:08.288Z,64.49
2023-02-12T03:33:19.682Z,63.34
2023-02-12T03:38:29.112Z,62.37
2023-02-12T03:43:34.745Z,62.37
2023-02-12T03:48:42.611Z,61.41
2023-02-12T03:53:42.787Z,61.56
2023-02-12T03:58:43.722Z,62.03
2023-02-12T04:03:43.873Z,61.42
2023-02-12T04:08:42.709Z,60.70
2023-02-12T04:13:47.432Z,61.06
2023-02-12T04:18:49.709Z,60.42
2023-02-12T04:23:56.070Z,60.82
2023-02-12T04:29:06.694Z,60.96
2023-02-12T04:34:13.716Z,61.72
2023-02-12T04:39:17.952Z,63.34
2023-02-12T04:44:19.059Z,62.58
2023-02-12T04:49:21.667Z,62.15
2023-02-12T04:54:22.186Z,61.46
2023-02-12T04:59:20.967Z,61.75
2023-02-12T05:04:21.219Z,63.50
2023-02-12T05:09:21.763Z,62.19
2023-02-12T05:14:20.586Z,63.38
2023-02-12T05:19:20.744Z,63.88
2023-02-12T05:24:19.691Z,61.68
2023-02-12T05:29:21.998Z,61.41
2023-02-12T05:34:22.327Z,61.31
2023-02-12T05:39:21.178Z,61.48
2023-02-12T05:44:19.917Z,60.83
2023-02-12T05:49:18.752Z,61.48
2023-02-12T05:54:18.918Z,61.62
2023-02-12T05:59:20.114Z,60.67
2023-02-12T06:04:20.869Z,61.14
2023-02-12T06:09:21.611Z,61.36
2023-02-12T06:14:21.658Z,61.61
2023-02-12T06:19:22.201Z,61.21
2023-02-12T06:24:24.844Z,60.88
2023-02-12T06:29:24.288Z,60.37
2023-02-12T06:34:23.125Z,60.49
2023-02-12T06:39:23.291Z,60.32
2023-02-12T06:44:22.134Z,61.04
2023-02-12T06:49:20.994Z,60.24
2023-02-12T06:54:20.084Z,61.08
2023-02-12T06:59:21.265Z,61.87
2023-02-12T07:04:20.199Z,69.56
2023-02-12T07:09:18.999Z,75.82
2023-02-12T07:14:19.525Z,62.47
2023-02-12T07:19:18.413Z,61.48
2023-02-12T07:24:18.288Z,61.35
2023-02-12T07:29:17.294Z,61.05
2023-02-12T07:34:17.549Z,60.93
2023-02-12T07:39:16.299Z,60.41
2023-02-12T07:44:15.126Z,60.99
2023-02-12T07:49:15.543Z,61.41
2023-02-12T07:54:16.484Z,60.61
2023-02-12T07:59:17.656Z,59.67
2023-02-12T08:04:18.439Z,59.38
2023-02-12T08:09:21.089Z,58.68
2023-02-12T08:14:22.790Z,58.31
2023-02-12T08:19:25.801Z,59.51
2023-02-12T08:24:26.975Z,59.13
2023-02-12T08:29:27.911Z,59.51
2023-02-12T08:34:28.204Z,58.79
2023-02-12T08:39:30.790Z,59.51
2023-02-12T08:44:29.967Z,59.90
2023-02-12T08:49:31.574Z,59.12
2023-02-12T08:54:32.834Z,58.91
2023-02-12T08:59:32.117Z,57.67
2023-02-12T09:04:31.441Z,56.92
2023-02-12T09:09:31.744Z,57.14
2023-02-12T09:14:30.521Z,57.38
2023-02-12T09:19:29.348Z,56.62
2023-02-12T09:24:28.562Z,56.93
2023-02-12T09:29:28.842Z,56.41
2023-02-12T09:34:27.878Z,56.53
2023-02-12T09:39:29.029Z,56.97
2023-02-12T09:44:38.495Z,57.11
2023-02-12T09:49:51.215Z,57.13
2023-02-12T09:54:50.967Z,57.82
2023-02-12T09:59:56.720Z,58.68
2023-02-12T10:05:01.723Z,59.36
2023-02-12T10:10:13.583Z,59.32
2023-02-12T10:15:29.099Z,58.92
2023-02-12T10:20:55.323Z,59.30
2023-02-12T10:25:56.841Z,59.10
2023-02-12T10:31:01.102Z,60.28
2023-02-12T10:36:06.389Z,59.09
2023-02-12T10:41:05.422Z,58.07
2023-02-12T10:46:06.340Z,59.43
2023-02-12T10:51:21.993Z,58.31
2023-02-12T10:56:27.724Z,57.04
2023-02-12T11:01:30.594Z,57.33
2023-02-12T11:06:31.675Z,57.28
2023-02-12T11:11:32.512Z,57.15
2023-02-12T11:16:35.494Z,57.93
2023-02-12T11:21:35.851Z,57.76
2023-02-12T11:26:34.792Z,58.52
2023-02-12T11:31:39.326Z,57.69
2023-02-12T11:36:40.247Z,57.87
2023-02-12T11:41:41.773Z,58.40
2023-02-12T11:46:48.729Z,57.29
2023-02-12T11:51:49.404Z,56.58
2023-02-12T11:56:48.988Z,56.78
2023-02-12T12:01:51.942Z,56.43
2023-02-12T12:06:57.735Z,55.72
2023-02-12T12:12:04.208Z,56.96
2023-02-12T12:17:27.383Z,56.35
2023-02-12T12:22:40.838Z,56.09
2023-02-12T12:28:06.544Z,55.11
2023-02-12T12:33:14.998Z,55.11
2023-02-12T12:38:25.460Z,54.01
2023-02-12T12:43:33.245Z,54.24
2023-02-12T12:48:54.248Z,53.54
2023-02-12T12:54:04.840Z,53.50
2023-02-12T12:59:45.580Z,53.29
2023-02-12T13:05:26.220Z,53.25
2023-02-12T13:10:34.962Z,52.61
2023-02-12T13:15:41.399Z,52.39
2023-02-12T13:20:52.685Z,51.83
2023-02-12T13:26:01.177Z,51.72
2023-02-12T13:31:03.695Z,51.54
2023-02-12T13:36:08.108Z,51.04
2023-02-12T13:41:09.418Z,51.33
2023-02-12T13:46:15.910Z,51.26
2023-02-12T13:51:28.174Z,51.40
2023-02-12T13:56:36.139Z,51.94
2023-02-12T14:01:47.605Z,51.69
2023-02-12T14:07:00.708Z,52.59
2023-02-12T14:12:01.496Z,52.60
2023-02-12T14:17:38.704Z,52.82
2023-02-12T14:23:19.787Z,52.41
2023-02-12T14:28:27.533Z,52.45
2023-02-12T14:33:28.353Z,51.96
2023-02-12T14:39:02.746Z,49.80
2023-02-12T14:44:44.657Z,49.12
2023-02-12T14:49:48.687Z,46.92
2023-02-12T14:54:50.979Z,46.19
2023-02-12T14:59:51.161Z,45.71
2023-02-12T15:04:54.311Z,44.13
2023-02-12T15:10:00.677Z,42.90
2023-02-12T15:15:07.413Z,43.46
2023-02-12T15:20:15.100Z,43.24
2023-02-12T15:25:18.979Z,43.48
2023-02-12T15:30:26.305Z,44.37
2023-02-12T15:35:29.761Z,44.42
2023-02-12T15:40:29.665Z,44.85
2023-02-12T15:45:30.309Z,45.92
2023-02-12T15:50:32.720Z,46.32
2023-02-12T15:55:40.883Z,46.96
2023-02-12T16:00:44.107Z,47.29
2023-02-12T16:05:45.278Z,48.01
2023-02-12T16:10:47.596Z,48.71
2023-02-12T16:15:46.427Z,49.39
2023-02-12T16:20:47.869Z,49.67
2023-02-12T16:25:56.023Z,50.33
2023-02-12T16:31:07.655Z,51.32
2023-02-12T16:36:14.393Z,52.03
2023-02-12T16:41:23.758Z,52.32
2023-02-12T16:46:23.074Z,52.67
2023-02-12T16:51:26.153Z,53.23
2023-02-12T16:56:26.617Z,53.12
2023-02-12T17:01:28.496Z,52.96
2023-02-12T17:06:30.907Z,53.10
2023-02-12T17:11:30.223Z,52.84
2023-02-12T17:16:31.201Z,52.90
2023-02-12T17:21:38.074Z,52.94
2023-02-12T17:26:36.989Z,52.83
2023-02-12T17:31:36.829Z,52.84
2023-02-12T17:36:37.340Z,52.98
2023-02-12T17:41:37.200Z,52.84
2023-02-12T17:46:36.075Z,52.67
2023-02-12T17:51:36.195Z,52.55
2023-02-12T17:56:34.999Z,52.65
2023-02-12T18:01:34.757Z,52.58
2023-02-12T18:06:33.742Z,52.89
2023-02-12T18:11:34.240Z,52.72
2023-02-12T18:16:35.293Z,52.74
2023-02-12T18:21:35.181Z,52.71
2023-02-12T18:26:35.495Z,52.81
2023-02-12T18:31:35.370Z,52.98
2023-02-12T18:36:34.911Z,53.14
2023-02-12T18:41:36.055Z,53.12
2023-02-12T18:46:34.951Z,53.27
2023-02-12T18:51:37.349Z,53.37
2023-02-12T18:56:41.059Z,53.33
2023-02-12T19:01:39.780Z,52.99
2023-02-12T19:06:41.934Z,53.52
2023-02-12T19:11:42.070Z,53.56
2023-02-12T19:16:41.567Z,53.96
2023-02-12T19:21:40.796Z,54.01
2023-02-12T19:26:40.023Z,53.85
2023-02-12T19:31:58.920Z,54.05
2023-02-12T19:36:58.136Z,54.05
2023-02-12T19:41:57.314Z,54.94
2023-02-12T19:46:59.701Z,55.75
2023-02-12T19:51:59.042Z,55.08
2023-02-12T19:56:58.368Z,55.05
2023-02-12T20:01:59.561Z,55.10
2023-02-12T20:06:59.125Z,57.98
2023-02-12T20:11:58.398Z,57.38
2023-02-12T20:17:02.598Z,56.88
2023-02-12T20:22:04.812Z,56.22
2023-02-12T20:27:06.517Z,55.98
2023-02-12T20:32:08.589Z,56.02
2023-02-12T20:37:08.640Z,55.96
2023-02-12T20:42:09.158Z,56.01
2023-02-12T20:47:11.148Z,56.09
2023-02-12T20:52:11.438Z,56.29
2023-02-12T20:57:13.154Z,56.24
2023-02-12T21:02:13.541Z,56.41
2023-02-12T21:07:12.356Z,56.41
2023-02-12T21:12:20.581Z,56.40
2023-02-12T21:17:22.170Z,56.62
2023-02-12T21:22:21.563Z,56.80
2023-02-12T21:27:20.528Z,56.88
2023-02-12T21:32:20.827Z,56.99
2023-02-12T21:37:19.806Z,57.37
2023-02-12T21:42:18.551Z,57.30
2023-02-12T21:47:17.381Z,57.16
2023-02-12T21:52:17.482Z,56.67
2023-02-12T21:57:19.931Z,56.92
2023-02-12T22:02:18.822Z,56.91
2023-02-12T22:07:21.007Z,56.73
2023-02-12T22:12:19.809Z,56.35
2023-02-12T22:17:18.582Z,56.50
2023-02-12T22:22:18.841Z,56.16
2023-02-12T22:27:17.597Z,56.24
2023-02-12T22:32:16.430Z,55.87
2023-02-12T22:37:15.306Z,55.53
2023-02-12T22:42:15.437Z,55.39
2023-02-12T22:47:25.873Z,54.88
2023-02-12T22:52:26.050Z,54.99
2023-02-12T22:57:28.167Z,55.05
2023-02-12T23:02:26.942Z,54.99
2023-02-12T23:07:27.819Z,54.98
2023-02-12T23:12:27.954Z,55.09
2023-02-12T23:17:26.762Z,55.02
2023-02-12T23:22:25.582Z,54.71
2023-02-12T23:27:24.426Z,55.02
2023-02-12T23:32:24.671Z,55.08
2023-02-12T23:37:23.740Z,54.88
2023-02-12T23:42:22.586Z,54.82
2023-02-12T23:47:21.297Z,55.47
2023-02-12T23:52:21.405Z,55.56
2023-02-12T23:57:20.305Z,55.35
